Tropical Cyclones
[Index]
Main Index Home Page Stock Weather Photos Extreme Storms Discussion Storm News and Storm Chasing Reports Tropical Cyclones / Hurricanes / Typhoons Weather Data and Links Wild Fires / Bushfires Weather Observation Techniques Weather Picture Catalogue Tornado Pictures and Reports Stock Video Footage and DVDs for sale
Season 2019-2020 Tropical Cyclone SARAI Track Map
Season 2019-2020 Summaries (Operational Data): [AU] [SIO] [SPAC] [SH]
<<- Previous TC | 2019-2020 Season | Next TC ->>

click for intensity scale information  Lat/long Grid: Show Hide

 Date Labels: Show Hide

Operational Tropical Cyclone Data

Name: SARAI
Number: 2004

22 Dec 2019 06:00 UTC to 02 Jan 2020 12:00 UTC

    date/time    lat    long     hPa   cat  kts
2019-12-22 06    8.8   161.0    1010         15          
2019-12-22 12    8.6   161.9    1010         15          
2019-12-22 18    8.6   162.7    1010         15          
2019-12-23 00    8.9   163.5    1008         15          
2019-12-23 06    5.4   177.5    1010         15          
2019-12-23 12    5.8   176.0    1006         15          
2019-12-23 18    6.3   176.2    1000         15          
2019-12-24 00    6.8   176.4    1000         15          
2019-12-24 06    7.4   176.6    1000         20          
2019-12-24 12    7.8   176.4    1000         20          
2019-12-24 18    8.1   176.1    1000         20          
2019-12-25 00    8.3   175.7    1002         25          
2019-12-25 06    8.8   175.7    1002         25          
2019-12-25 12    9.4   175.8    1002         25          
2019-12-25 18   11.0   175.9    1000         25          
2019-12-26 00   12.3   175.2    1000         25          
2019-12-26 06   13.2   176.2     999    1    35          
2019-12-26 12   14.4   175.8     996    1    45          
2019-12-26 18   15.7   175.5     994    1    45          
2019-12-27 00   16.8   175.4     990    2    50          
2019-12-27 06   18.0   175.5     986    2    55          
2019-12-27 12   18.6   176.0     988    2    55          
2019-12-27 18   19.2   176.6     983    2    60          
2019-12-28 00   19.9   177.2     979    3    65          
2019-12-28 06   20.2   177.5     979    3    65          
2019-12-28 12   20.1   177.9     976    3    70          
2019-12-28 18   19.9   178.3     974    3    70          
2019-12-29 00   20.3   179.1     975    3    70          
2019-12-29 06   20.5   179.7     978    3    65          
2019-12-29 12   20.3   179.6W    980    3    65          
2019-12-29 18   20.5   178.9W    982    2    60          
2019-12-30 00   20.7   178.6W    984    2    55          
2019-12-30 06   21.1   177.4W    986    2    50          
2019-12-30 12   21.2   176.7W    991    1    45          
2019-12-30 18   21.1   175.9W    991    1    45          
2019-12-31 00   20.7   175.3W    993    1    40          
2019-12-31 06   20.4   173.9W    997    1    35          
2019-12-31 12   20.6   172.7W    999         30          
2019-12-31 18   20.5   171.3W   1001         30          
2020-01-01 00   20.7   168.6W    999         30          
2020-01-01 06   21.0   166.7W   1001         25          
2020-01-01 12   21.3   164.6W    992    1    45          
2020-01-01 18   22.1   161.8W    994    1    40          
2020-01-02 00   22.9   159.3W    992    1    40          
2020-01-02 06   24.8   156.5W    992    1    40          
2020-01-02 12   27.1   153.8W    993    1    35          
Winds are 10-min average.

Tropical cyclone tracks developed by Michael Bath using operational warnings and advisories and Google Maps.


[Australian Severe Weather index] [Copyright Notice] [Email Contacts] [Search This Site] [Privacy Policy]
Document: tropical_cyclone_sarai.htm Updated: 14 May 2020